Time;durP1;ratioP1;P1;durP2;ratioP2;P2;SDS_P1;SDS_P2;PMS_P1;PMS_P2;Temp;Humidity;BMP_temperature;BMP_pressure;BME280_temperature;BME280_humidity;BME280_pressure;Samples;Min_cycle;Max_cycle;Signal;HPM_P1;HPM_P2
2022/03/30 00:01:17;;;;;;;17.25;8.82;;;11.20;45.50;;;;;;5070334;28;20488;-73
2022/03/30 00:03:43;;;;;;;16.08;7.85;;;11.20;45.70;;;;;;5071189;28;20043;-73
2022/03/30 00:06:09;;;;;;;16.77;10.15;;;11.10;45.70;;;;;;5070654;28;20121;-74
2022/03/30 00:08:35;;;;;;;25.92;10.52;;;11.10;45.90;;;;;;5053888;28;20037;-74
2022/03/30 00:11:02;;;;;;;40.70;19.23;;;11.00;45.80;;;;;;5053212;28;20040;-74
2022/03/30 00:13:28;;;;;;;23.33;12.25;;;11.00;46.10;;;;;;5072836;28;20396;-73
2022/03/30 00:15:55;;;;;;;27.52;13.45;;;11.00;45.90;;;;;;5090241;28;20036;-73
2022/03/30 00:18:21;;;;;;;19.25;8.90;;;10.90;46.10;;;;;;5091244;28;20036;-74
2022/03/30 00:20:48;;;;;;;34.53;16.90;;;11.00;46.10;;;;;;5090082;28;20503;-74
2022/03/30 00:23:14;;;;;;;32.38;15.63;;;10.90;45.70;;;;;;5090612;28;20056;-73
2022/03/30 00:25:40;;;;;;;42.42;21.77;;;10.90;46.70;;;;;;5090251;28;20036;-73
2022/03/30 00:28:08;;;;;;;32.65;16.75;;;10.90;46.60;;;;;;5075854;28;20075;-73
2022/03/30 00:30:34;;;;;;;28.83;14.77;;;10.90;46.10;;;;;;5076242;28;20035;-73
2022/03/30 00:33:00;;;;;;;16.52;7.72;;;10.80;46.00;;;;;;5091730;28;20110;-73
2022/03/30 00:35:26;;;;;;;14.05;6.78;;;10.90;46.90;;;;;;5091504;28;20520;-74
2022/03/30 00:37:52;;;;;;;10.18;6.05;;;10.90;47.10;;;;;;5091357;28;20497;-73
2022/03/30 00:40:18;;;;;;;12.20;5.85;;;10.80;47.30;;;;;;5090994;28;20040;-74
2022/03/30 00:42:45;;;;;;;10.18;5.57;;;10.80;47.50;;;;;;5090721;28;20040;-73
2022/03/30 00:45:16;;;;;;;11.10;5.88;;;10.80;47.70;;;;;;5090539;28;20558;-73
2022/03/30 00:47:44;;;;;;;8.82;5.50;;;10.80;47.70;;;;;;5090332;28;20033;-73
2022/03/30 00:50:16;;;;;;;13.45;6.13;;;10.80;47.80;;;;;;5091006;28;20032;-73
2022/03/30 00:52:44;;;;;;;12.57;6.15;;;10.80;47.70;;;;;;5090110;28;20040;-73
2022/03/30 00:55:11;;;;;;;12.20;5.18;;;10.80;47.60;;;;;;5090879;28;20036;-74
2022/03/30 00:57:38;;;;;;;10.95;5.32;;;10.80;47.60;;;;;;5073528;28;20477;-73
2022/03/30 01:00:07;;;;;;;36.00;14.52;;;10.80;47.40;;;;;;5089879;28;20039;-73
2022/03/30 01:02:33;;;;;;;15.90;7.78;;;10.90;47.50;;;;;;5089755;28;20028;-73
2022/03/30 01:04:59;;;;;;;12.60;6.32;;;10.90;47.70;;;;;;5089992;28;20040;-73
2022/03/30 01:07:25;;;;;;;17.08;5.85;;;10.90;47.50;;;;;;5089339;28;20043;-73
2022/03/30 01:09:51;;;;;;;14.48;6.63;;;10.90;47.30;;;;;;5090734;28;20040;-73
2022/03/30 01:12:18;;;;;;;11.60;6.40;;;11.00;47.20;;;;;;5089629;28;20066;-74
2022/03/30 01:14:44;;;;;;;11.73;6.40;;;11.00;47.00;;;;;;5091082;28;20039;-72
2022/03/30 01:17:10;;;;;;;9.23;5.70;;;11.00;47.30;;;;;;5090788;28;20036;-73
2022/03/30 01:19:37;;;;;;;10.73;5.40;;;11.00;47.30;;;;;;5090787;28;20077;-73
2022/03/30 01:22:07;;;;;;;11.73;6.10;;;11.00;47.20;;;;;;5088892;28;20036;-73
2022/03/30 01:24:35;;;;;;;13.45;5.53;;;11.00;46.90;;;;;;5089761;28;20104;-73
2022/03/30 01:27:02;;;;;;;17.10;6.03;;;11.00;46.80;;;;;;5089678;28;20036;-73
2022/03/30 01:32:29;;;;;;;10.52;4.53;;;11.00;47.10;;;;;;5082902;28;20051;-73
2022/03/30 01:35:17;;;;;;;12.82;5.53;;;11.00;47.30;;;;;;5071094;28;20058;-73
2022/03/30 01:37:43;;;;;;;14.63;5.57;;;11.00;47.50;;;;;;5070419;28;20073;-74
2022/03/30 01:40:10;;;;;;;10.98;5.10;;;11.00;47.90;;;;;;5068322;28;20117;-73
2022/03/30 01:42:36;;;;;;;11.60;5.65;;;11.00;47.70;;;;;;5070838;28;20556;-73
2022/03/30 01:45:04;;;;;;;16.35;5.53;;;10.90;48.50;;;;;;5068879;28;20033;-74
2022/03/30 01:47:30;;;;;;;11.35;4.15;;;10.80;49.10;;;;;;5089098;28;20539;-72
2022/03/30 01:49:56;;;;;;;;;;;10.90;50.00;;;;;;5089712;28;20043;-73
2022/03/30 01:52:23;;;;;;;11.75;4.68;;;11.00;50.20;;;;;;5088426;28;20365;-73
2022/03/30 01:54:50;;;;;;;10.85;4.15;;;11.10;51.20;;;;;;5072142;28;20024;-73
2022/03/30 01:57:16;;;;;;;9.48;4.22;;;11.20;50.70;;;;;;5090453;28;20105;-73
2022/03/30 01:59:43;;;;;;;;;;;11.30;51.40;;;;;;5089538;28;20127;-74
2022/03/30 02:02:11;;;;;;;11.73;3.75;;;11.30;50.60;;;;;;5088570;28;20383;-74
2022/03/30 02:04:37;;;;;;;9.27;4.10;;;11.30;50.50;;;;;;5068751;28;20033;-73
2022/03/30 02:07:04;;;;;;;;;;;11.40;50.50;;;;;;5068636;28;20036;-73
2022/03/30 02:09:30;;;;;;;9.70;4.13;;;11.50;50.40;;;;;;5069456;28;19912;-73
2022/03/30 02:11:56;;;;;;;11.18;4.70;;;11.50;50.60;;;;;;5068345;28;20050;-74
2022/03/30 02:14:23;;;;;;;9.40;4.30;;;11.60;50.50;;;;;;5052061;28;20059;-73
2022/03/30 02:16:49;;;;;;;11.00;4.90;;;11.60;49.90;;;;;;5068071;28;20033;-73
2022/03/30 02:19:15;;;;;;;9.60;4.60;;;11.70;49.70;;;;;;5067230;28;20485;-73
2022/03/30 02:21:41;;;;;;;9.95;4.68;;;11.70;49.40;;;;;;5068445;28;20036;-73
2022/03/30 02:24:07;;;;;;;8.55;4.43;;;11.70;49.20;;;;;;5052499;28;20044;-73
2022/03/30 02:26:34;;;;;;;10.98;4.15;;;11.70;49.00;;;;;;5069018;28;20090;-74
2022/03/30 02:29:00;;;;;;;13.90;4.40;;;11.70;48.90;;;;;;5068756;28;20036;-73
2022/03/30 02:31:26;;;;;;;9.05;4.30;;;11.70;48.90;;;;;;5059883;28;20036;-73
2022/03/30 02:33:52;;;;;;;10.18;4.40;;;11.70;48.90;;;;;;5069781;28;20528;-73
2022/03/30 02:36:18;;;;;;;12.38;4.95;;;11.70;48.90;;;;;;5068573;28;20040;-73
2022/03/30 02:38:45;;;;;;;11.27;4.38;;;11.70;49.10;;;;;;5070560;28;20041;-74
2022/03/30 02:41:12;;;;;;;12.18;4.35;;;11.60;49.10;;;;;;5072029;28;20478;-73
2022/03/30 02:43:39;;;;;;;10.15;4.63;;;11.60;49.30;;;;;;5072278;28;20044;-74
2022/03/30 02:46:06;;;;;;;14.18;4.45;;;11.60;49.30;;;;;;5078028;28;20468;-74
2022/03/30 02:48:33;;;;;;;14.30;4.78;;;11.60;49.70;;;;;;5109973;28;20479;-73
2022/03/30 02:51:04;;;;;;;12.88;4.53;;;11.60;49.70;;;;;;5091555;28;20040;-74
2022/03/30 02:53:31;;;;;;;12.82;4.88;;;11.60;49.90;;;;;;5092500;28;20407;-73
2022/03/30 02:55:58;;;;;;;9.02;3.90;;;11.60;50.10;;;;;;5091738;28;20086;-73
2022/03/30 02:58:24;;;;;;;10.50;4.38;;;11.60;50.40;;;;;;5109115;28;20497;-73
2022/03/30 03:00:51;;;;;;;13.45;4.50;;;11.50;50.10;;;;;;5091446;28;20430;-73
2022/03/30 03:03:17;;;;;;;12.57;4.65;;;11.50;50.30;;;;;;5092746;28;20492;-73
2022/03/30 03:05:43;;;;;;;10.50;4.78;;;11.50;50.20;;;;;;5074860;28;20417;-73
2022/03/30 03:08:11;;;;;;;13.32;4.22;;;11.50;50.20;;;;;;5093202;28;20032;-73
2022/03/30 03:10:40;;;;;;;13.13;4.43;;;11.50;50.10;;;;;;5091388;28;20036;-73
2022/03/30 03:13:08;;;;;;;11.40;4.35;;;11.50;50.10;;;;;;5075015;28;20028;-73
2022/03/30 03:15:37;;;;;;;8.50;4.03;;;11.50;50.00;;;;;;5091990;28;20032;-73
2022/03/30 03:18:05;;;;;;;8.40;4.25;;;11.50;50.10;;;;;;5091737;28;20040;-73
2022/03/30 03:20:32;;;;;;;11.80;4.60;;;11.50;49.90;;;;;;5091432;28;20040;-73
2022/03/30 03:25:46;;;;;;;11.13;4.77;;;11.50;50.00;;;;;;5091776;28;20055;-73
2022/03/30 03:28:14;;;;;;;9.68;4.32;;;11.50;49.90;;;;;;5092019;28;20028;-73
2022/03/30 03:30:42;;;;;;;7.97;4.15;;;11.50;50.10;;;;;;5087433;28;20056;-73
2022/03/30 03:33:09;;;;;;;11.85;5.18;;;11.60;49.90;;;;;;5071871;28;20366;-73
2022/03/30 03:35:35;;;;;;;13.27;4.85;;;11.60;49.80;;;;;;5070484;28;20064;-73
2022/03/30 03:38:03;;;;;;;13.88;5.28;;;11.60;49.90;;;;;;5071174;28;20029;-73
2022/03/30 03:43:15;;;;;;;10.43;5.13;;;11.70;49.80;;;;;;5071437;28;20417;-74
2022/03/30 03:45:41;;;;;;;17.92;6.75;;;11.70;49.70;;;;;;5075379;28;20399;-73
2022/03/30 03:48:07;;;;;;;11.02;4.85;;;11.70;49.70;;;;;;5093155;28;20740;-74
2022/03/30 03:50:33;;;;;;;16.35;5.50;;;11.60;49.60;;;;;;5091440;28;20493;-73
2022/03/30 03:53:01;;;;;;;11.30;5.20;;;11.70;49.60;;;;;;5092609;28;20043;-73
2022/03/30 03:55:28;;;;;;;9.90;4.93;;;11.70;49.30;;;;;;5091073;28;20036;-73
2022/03/30 03:57:54;;;;;;;11.95;4.35;;;11.70;48.80;;;;;;5080369;28;20093;-73
2022/03/30 04:00:20;;;;;;;9.85;4.68;;;11.80;49.20;;;;;;5091263;28;20040;-73
2022/03/30 04:02:47;;;;;;;10.43;3.70;;;11.80;49.30;;;;;;5091214;28;20040;-73
2022/03/30 04:05:14;;;;;;;;;;;11.70;49.40;;;;;;5091327;28;20040;-73
2022/03/30 04:07:41;;;;;;;9.60;4.72;;;11.70;49.00;;;;;;5092179;28;19916;-74
2022/03/30 04:10:09;;;;;;;10.82;3.92;;;11.70;49.10;;;;;;5090560;28;20028;-73
2022/03/30 04:12:35;;;;;;;12.35;4.55;;;11.70;49.30;;;;;;5091085;28;20489;-73
2022/03/30 04:15:02;;;;;;;;;;;11.70;48.80;;;;;;5093138;28;20036;-73
2022/03/30 04:17:29;;;;;;;9.48;3.35;;;11.70;48.90;;;;;;5090458;28;19922;-73
2022/03/30 04:19:55;;;;;;;10.20;3.53;;;11.60;49.30;;;;;;5090460;28;20036;-73
2022/03/30 04:22:21;;;;;;;12.77;3.97;;;11.60;49.70;;;;;;5089994;28;20029;-73
2022/03/30 04:24:47;;;;;;;11.40;3.92;;;11.60;49.90;;;;;;5090743;28;20126;-73
2022/03/30 04:27:13;;;;;;;10.10;3.45;;;11.60;50.20;;;;;;5090782;28;20028;-73
2022/03/30 04:29:39;;;;;;;12.27;4.53;;;11.60;50.20;;;;;;5090492;28;20040;-74
2022/03/30 04:32:06;;;;;;;8.13;3.88;;;11.50;50.10;;;;;;5089007;28;20032;-73
2022/03/30 04:34:32;;;;;;;9.25;3.78;;;11.50;49.70;;;;;;5091307;28;20062;-73
2022/03/30 04:36:58;;;;;;;9.43;3.97;;;11.50;50.30;;;;;;5089590;28;20028;-73
2022/03/30 04:39:24;;;;;;;9.02;4.20;;;11.50;50.20;;;;;;5090472;28;20028;-74
2022/03/30 04:41:50;;;;;;;10.00;3.97;;;11.50;50.10;;;;;;5090926;28;20036;-73
2022/03/30 04:44:18;;;;;;;13.15;4.25;;;11.50;50.10;;;;;;5090355;28;20060;-73
2022/03/30 04:46:44;;;;;;;10.85;3.58;;;11.50;50.00;;;;;;5086170;28;20041;-73
2022/03/30 04:49:10;;;;;;;16.45;4.10;;;11.50;50.00;;;;;;5070885;28;20093;-73
2022/03/30 04:51:37;;;;;;;11.27;4.57;;;11.50;49.70;;;;;;5070922;28;20051;-73
2022/03/30 04:54:03;;;;;;;49.55;25.98;;;11.50;49.60;;;;;;5082963;28;20042;-74
2022/03/30 04:56:29;;;;;;;;;;;11.60;48.70;;;;;;5090222;28;20528;-73
2022/03/30 04:58:55;;;;;;;26.95;13.43;;;11.70;49.00;;;;;;5106726;28;19919;-73
2022/03/30 05:01:21;;;;;;;16.92;8.55;;;11.70;48.90;;;;;;5089684;28;20501;-74
2022/03/30 05:03:47;;;;;;;22.92;10.02;;;11.70;48.80;;;;;;5106927;28;20501;-73
2022/03/30 05:06:13;;;;;;;13.10;5.90;;;11.70;48.80;;;;;;5090129;28;20027;-73
2022/03/30 05:08:39;;;;;;;89.05;38.95;;;11.70;48.80;;;;;;5079535;28;20500;-74
2022/03/30 05:11:05;;;;;;;30.92;14.10;;;11.80;48.60;;;;;;5069993;28;20516;-73
2022/03/30 05:13:31;;;;;;;12.23;5.45;;;11.80;48.60;;;;;;5070852;28;20032;-73
2022/03/30 05:15:58;;;;;;;11.35;5.72;;;11.80;48.60;;;;;;5068867;28;20394;-73
2022/03/30 05:18:24;;;;;;;22.15;7.10;;;11.80;48.50;;;;;;5053078;28;20051;-73
2022/03/30 05:20:50;;;;;;;17.58;7.53;;;11.90;48.50;;;;;;5069897;28;20447;-74
2022/03/30 05:23:16;;;;;;;14.98;7.75;;;11.90;48.50;;;;;;5070561;28;20055;-73
2022/03/30 05:25:42;;;;;;;22.58;11.50;;;12.00;48.30;;;;;;5068685;28;20040;-74
2022/03/30 05:28:08;;;;;;;18.73;8.77;;;12.00;48.20;;;;;;5070331;28;20036;-74
2022/03/30 05:30:34;;;;;;;15.65;7.97;;;12.10;48.30;;;;;;5071065;28;20032;-74
2022/03/30 05:33:01;;;;;;;18.33;9.43;;;12.10;48.20;;;;;;5070617;28;20466;-73
2022/03/30 05:35:27;;;;;;;21.50;11.00;;;12.10;48.10;;;;;;5085276;28;20047;-73
2022/03/30 05:37:53;;;;;;;18.77;10.63;;;12.20;47.40;;;;;;5070053;28;20041;-74
2022/03/30 05:40:19;;;;;;;26.75;9.30;;;12.20;47.90;;;;;;5085240;28;20037;-73
2022/03/30 05:42:46;;;;;;;18.40;7.95;;;12.20;47.80;;;;;;5070401;28;20032;-73
2022/03/30 05:45:12;;;;;;;17.63;6.25;;;12.30;47.90;;;;;;5085765;28;20044;-73
2022/03/30 05:47:38;;;;;;;10.93;5.25;;;12.30;48.10;;;;;;5088120;28;20327;-74
2022/03/30 05:50:07;;;;;;;11.60;5.07;;;12.30;48.00;;;;;;5088721;28;20043;-74
2022/03/30 05:52:34;;;;;;;10.18;4.10;;;12.30;48.00;;;;;;5088732;28;20435;-73
2022/03/30 05:55:00;;;;;;;12.00;3.88;;;12.30;48.00;;;;;;5090254;28;20101;-73
2022/03/30 05:57:27;;;;;;;;;;;12.30;48.20;;;;;;5089520;28;20050;-73
2022/03/30 05:59:53;;;;;;;8.52;3.80;;;12.30;48.00;;;;;;5105677;28;19920;-74
2022/03/30 06:02:19;;;;;;;7.47;3.47;;;12.30;48.00;;;;;;5089663;28;20090;-73
2022/03/30 06:04:45;;;;;;;15.02;4.00;;;12.20;47.70;;;;;;5088652;28;20040;-73
2022/03/30 06:07:11;;;;;;;10.32;3.72;;;12.30;48.40;;;;;;5088702;28;20056;-73
2022/03/30 06:09:38;;;;;;;7.57;3.90;;;12.30;47.90;;;;;;5090867;28;20028;-73
2022/03/30 06:12:05;;;;;;;13.68;4.28;;;12.40;48.30;;;;;;5089638;28;20040;-73
2022/03/30 06:14:32;;;;;;;10.13;3.60;;;12.50;47.90;;;;;;5094195;28;20081;-73
2022/03/30 06:16:58;;;;;;;15.50;5.68;;;12.50;47.80;;;;;;5092747;28;20036;-73
2022/03/30 06:19:25;;;;;;;12.25;4.97;;;12.60;47.70;;;;;;5094220;28;20040;-73
2022/03/30 06:21:51;;;;;;;16.08;5.25;;;12.70;47.40;;;;;;5093516;28;20028;-74
2022/03/30 06:24:17;;;;;;;;;;;12.70;48.00;;;;;;5094086;28;20127;-74
2022/03/30 06:26:44;;;;;;;16.00;5.03;;;12.70;47.60;;;;;;5093584;28;19923;-73
2022/03/30 06:29:12;;;;;;;18.75;6.38;;;12.80;47.50;;;;;;5092618;28;20101;-74
2022/03/30 06:31:39;;;;;;;18.45;7.65;;;12.90;47.60;;;;;;5088297;28;20060;-74
2022/03/30 06:34:05;;;;;;;18.20;8.23;;;12.90;47.70;;;;;;5073577;28;20036;-74
2022/03/30 06:36:33;;;;;;;11.77;7.18;;;12.90;47.50;;;;;;5073719;28;20028;-74
2022/03/30 06:39:00;;;;;;;18.33;7.60;;;13.00;47.40;;;;;;5055924;28;20041;-73
2022/03/30 06:41:26;;;;;;;;;;;13.10;47.30;;;;;;5072552;28;20040;-73
2022/03/30 06:43:52;;;;;;;16.48;7.07;;;13.20;47.00;;;;;;5108225;28;20366;-73
2022/03/30 06:46:19;;;;;;;18.15;8.05;;;13.20;46.90;;;;;;5093199;28;20378;-74
2022/03/30 06:48:46;;;;;;;21.23;7.85;;;13.20;46.50;;;;;;5092479;28;20036;-74
2022/03/30 06:51:14;;;;;;;14.55;7.25;;;13.30;46.20;;;;;;5092488;28;20035;-73
2022/03/30 06:54:00;;;;;;;13.55;7.03;;;13.30;47.10;;;;;;5075234;28;20073;-73
2022/03/30 06:56:26;;;;;;;11.57;5.65;;;13.30;47.10;;;;;;5092645;28;20043;-73
2022/03/30 06:58:53;;;;;;;18.52;6.75;;;13.40;46.90;;;;;;5075298;28;20477;-73
2022/03/30 07:01:19;;;;;;;14.07;5.90;;;13.40;46.50;;;;;;5091695;28;20122;-73
2022/03/30 07:03:45;;;;;;;11.27;5.22;;;13.50;47.20;;;;;;5093003;28;20115;-73
2022/03/30 07:06:12;;;;;;;12.90;5.05;;;13.50;46.80;;;;;;5071906;28;20089;-73
2022/03/30 07:11:23;;;;;;;9.95;4.90;;;13.60;46.40;;;;;;5072184;28;20396;-73
2022/03/30 07:13:49;;;;;;;;;;;13.60;45.60;;;;;;5073567;28;20041;-73
2022/03/30 07:16:15;;;;;;;10.40;5.05;;;13.70;45.50;;;;;;5072390;28;19920;-73
2022/03/30 07:18:41;;;;;;;15.90;5.38;;;13.70;45.90;;;;;;5054577;28;20060;-73
2022/03/30 07:21:07;;;;;;;13.18;5.22;;;13.70;45.80;;;;;;5072780;28;20089;-73
2022/03/30 07:23:33;;;;;;;13.25;4.78;;;13.80;45.60;;;;;;5071566;28;20060;-73
2022/03/30 07:26:00;;;;;;;10.13;4.63;;;13.90;45.60;;;;;;5070250;28;20040;-73
2022/03/30 07:28:46;;;;;;;12.77;5.00;;;14.00;45.50;;;;;;5072716;28;20043;-74
2022/03/30 07:31:13;;;;;;;17.05;5.13;;;14.10;45.50;;;;;;5064341;28;20036;-73
2022/03/30 07:33:39;;;;;;;12.55;4.57;;;14.10;45.10;;;;;;5093130;28;20032;-74
2022/03/30 07:36:05;;;;;;;12.02;4.80;;;14.20;45.00;;;;;;5091550;28;20024;-73
2022/03/30 07:38:31;;;;;;;13.30;5.93;;;14.30;44.90;;;;;;5086015;28;20029;-73
2022/03/30 07:41:00;;;;;;;12.65;5.45;;;14.40;44.90;;;;;;5070361;28;20112;-73
2022/03/30 07:43:27;;;;;;;10.25;5.47;;;14.40;44.80;;;;;;5091039;28;20039;-74
2022/03/30 07:45:54;;;;;;;14.98;6.10;;;14.50;44.80;;;;;;5090896;28;20429;-73
2022/03/30 07:48:20;;;;;;;16.95;7.20;;;14.50;45.00;;;;;;5091764;28;20109;-73
2022/03/30 07:50:46;;;;;;;16.65;8.30;;;14.50;45.40;;;;;;5090993;28;20070;-73
2022/03/30 07:53:12;;;;;;;16.52;6.55;;;14.50;45.50;;;;;;5091068;28;20105;-74
2022/03/30 07:55:39;;;;;;;15.27;6.90;;;14.50;45.30;;;;;;5090570;28;20047;-73
2022/03/30 07:58:06;;;;;;;17.88;7.13;;;14.40;45.30;;;;;;5091183;28;20115;-73
2022/03/30 08:00:32;;;;;;;15.65;6.82;;;14.50;45.00;;;;;;5092969;28;20028;-73
2022/03/30 08:03:00;;;;;;;14.48;7.15;;;14.50;45.40;;;;;;5091125;28;20408;-74
2022/03/30 08:05:26;;;;;;;16.85;7.13;;;14.50;45.40;;;;;;5073551;28;20055;-74
2022/03/30 08:07:52;;;;;;;17.80;6.63;;;14.50;45.40;;;;;;5074177;28;20067;-74
2022/03/30 08:10:18;;;;;;;19.30;6.70;;;14.50;45.20;;;;;;5090534;28;20522;-73
2022/03/30 08:12:45;;;;;;;14.13;7.15;;;14.40;44.60;;;;;;5073762;28;20511;-74
2022/03/30 08:15:13;;;;;;;;;;;14.40;45.10;;;;;;5091424;28;20592;-74
2022/03/30 08:17:40;;;;;;;13.45;5.93;;;14.40;44.90;;;;;;5090560;28;19924;-74
2022/03/30 08:20:07;;;;;;;15.50;7.20;;;14.40;45.00;;;;;;5090189;28;20044;-74
2022/03/30 08:22:34;;;;;;;18.08;7.10;;;14.40;44.30;;;;;;5090502;28;20028;-73
2022/03/30 08:25:20;;;;;;;14.18;7.68;;;14.50;45.30;;;;;;5090611;28;20408;-74
2022/03/30 08:27:46;;;;;;;19.92;6.47;;;14.60;45.00;;;;;;5091528;28;20028;-73
2022/03/30 08:30:12;;;;;;;15.50;6.10;;;14.70;44.70;;;;;;5091915;28;20032;-74
2022/03/30 08:32:38;;;;;;;15.57;7.07;;;14.80;44.40;;;;;;5090264;28;20040;-74
2022/03/30 08:35:07;;;;;;;13.05;5.90;;;14.80;43.90;;;;;;5082846;28;20061;-73
2022/03/30 08:37:33;;;;;;;18.88;9.40;;;14.90;43.40;;;;;;5072374;28;20037;-73
2022/03/30 08:40:00;;;;;;;12.98;7.30;;;15.10;43.90;;;;;;5090190;28;20039;-73
2022/03/30 08:42:26;;;;;;;14.80;6.97;;;15.20;43.50;;;;;;5091558;28;20319;-73
2022/03/30 08:44:52;;;;;;;16.48;7.60;;;15.30;43.40;;;;;;5091269;28;20047;-73
2022/03/30 08:47:19;;;;;;;15.82;6.50;;;15.30;43.10;;;;;;5089763;28;20404;-74
2022/03/30 08:49:47;;;;;;;12.02;6.40;;;15.30;42.90;;;;;;5089987;28;20040;-74
2022/03/30 08:52:14;;;;;;;17.02;7.35;;;15.30;43.00;;;;;;5089348;28;20558;-73
2022/03/30 08:54:59;;;;;;;18.05;8.63;;;15.40;42.50;;;;;;5090170;28;20250;-74
2022/03/30 08:57:26;;;;;;;22.40;8.50;;;15.50;42.40;;;;;;5089978;28;20031;-73
2022/03/30 09:00:34;;;;;;;19.63;7.15;;;15.60;41.70;;;;;;5072840;28;20036;-73
2022/03/30 09:03:03;;;;;;;14.35;6.28;;;15.70;41.80;;;;;;5089701;28;20032;-73
2022/03/30 09:05:49;;;;;;;20.65;7.82;;;15.60;41.50;;;;;;5089182;28;20492;-74
2022/03/30 09:08:38;;;;;;;19.42;8.68;;;15.70;41.90;;;;;;5089705;28;20032;-73
2022/03/30 09:11:04;;;;;;;14.60;6.97;;;15.70;41.90;;;;;;5090545;28;20092;-73
2022/03/30 09:13:31;;;;;;;13.88;6.55;;;15.90;41.70;;;;;;5072840;28;20032;-74
2022/03/30 09:15:58;;;;;;;16.13;7.35;;;16.00;41.50;;;;;;5089006;28;20024;-74
2022/03/30 09:18:24;;;;;;;18.10;6.32;;;16.20;41.40;;;;;;5090102;28;20035;-73
2022/03/30 09:20:52;;;;;;;14.65;6.43;;;16.30;41.00;;;;;;5090602;28;20404;-74
2022/03/30 09:23:18;;;;;;;14.60;6.82;;;16.30;41.00;;;;;;5072463;28;20059;-73
2022/03/30 09:25:46;;;;;;;;;;;16.40;41.10;;;;;;5090713;28;20043;-73
2022/03/30 09:28:34;;;;;;;12.80;5.40;;;16.30;41.00;;;;;;5089292;28;20315;-74
2022/03/30 09:31:00;;;;;;;10.85;5.10;;;16.30;41.00;;;;;;5084094;28;20036;-74
2022/03/30 09:33:27;;;;;;;16.73;6.38;;;16.30;41.00;;;;;;5069415;28;20453;-73
2022/03/30 09:35:53;;;;;;;17.83;7.07;;;16.30;41.40;;;;;;5086624;28;20032;-74
2022/03/30 09:38:22;;;;;;;13.95;6.22;;;16.50;41.50;;;;;;5090378;28;20032;-74
2022/03/30 09:41:08;;;;;;;14.27;7.05;;;16.50;41.00;;;;;;5088798;28;20047;-73
2022/03/30 09:43:37;;;;;;;12.55;5.85;;;16.60;40.80;;;;;;5090400;28;20039;-74
2022/03/30 09:46:21;;;;;;;13.55;5.88;;;16.60;40.20;;;;;;5089952;28;20042;-73
2022/03/30 09:51:35;;;;;;;12.18;6.47;;;16.80;40.60;;;;;;5089402;28;20127;-74
2022/03/30 09:54:01;;;;;;;17.55;6.30;;;17.00;40.50;;;;;;5088969;28;20036;-73
2022/03/30 09:56:28;;;;;;;11.38;6.35;;;17.20;40.30;;;;;;5088140;28;20460;-74
2022/03/30 09:59:14;;;;;;;12.77;5.55;;;17.30;40.20;;;;;;5088768;28;20040;-74
2022/03/30 10:01:44;;;;;;;16.65;5.80;;;17.30;39.70;;;;;;5071489;28;20097;-74
2022/03/30 10:04:12;;;;;;;13.93;6.38;;;17.40;39.40;;;;;;5088751;28;20171;-73
2022/03/30 10:06:40;;;;;;;12.70;6.47;;;17.50;39.90;;;;;;5090138;28;20035;-73
2022/03/30 10:09:07;;;;;;;10.48;5.90;;;17.50;40.00;;;;;;5090369;28;20040;-74
2022/03/30 10:11:33;;;;;;;14.02;5.95;;;17.60;39.80;;;;;;5088348;28;20128;-73
2022/03/30 10:14:00;;;;;;;;;;;17.60;39.70;;;;;;5089407;28;20032;-73
2022/03/30 10:16:27;;;;;;;12.48;6.80;;;17.50;39.70;;;;;;5089722;28;19920;-74
2022/03/30 10:18:54;;;;;;;12.77;5.43;;;17.50;39.80;;;;;;5090000;28;20024;-73
2022/03/30 10:21:58;;;;;;;15.27;6.22;;;17.50;39.80;;;;;;5074035;28;20037;-73
2022/03/30 10:25:06;;;;;;;15.32;5.95;;;17.50;39.60;;;;;;5090212;28;20044;-74
2022/03/30 10:27:53;;;;;;;17.70;5.65;;;17.50;39.70;;;;;;5088156;28;20043;-74
2022/03/30 10:30:45;;;;;;;16.38;5.47;;;17.50;39.70;;;;;;5089630;28;20033;-73
2022/03/30 10:33:12;;;;;;;14.50;5.30;;;17.40;39.30;;;;;;5089421;28;20042;-73
2022/03/30 10:35:58;;;;;;;11.63;4.82;;;17.30;39.40;;;;;;5092054;28;20424;-74
2022/03/30 10:38:24;;;;;;;14.85;5.18;;;17.10;39.50;;;;;;5091001;28;20020;-73
2022/03/30 10:41:06;;;;;;;;;;;17.00;40.20;;;;;;5092347;28;20517;-73
2022/03/30 10:43:32;;;;;;;11.45;4.80;;;17.00;39.90;;;;;;5074042;28;19915;-74
2022/03/30 10:46:01;;;;;;;;;;;16.90;40.40;;;;;;5092099;28;20081;-74
2022/03/30 10:48:46;;;;;;;12.60;5.95;;;17.00;40.20;;;;;;5092160;28;19919;-73
2022/03/30 10:51:15;;;;;;;17.63;5.45;;;16.90;40.40;;;;;;5090542;28;20498;-73
2022/03/30 10:54:00;;;;;;;13.00;5.38;;;17.00;40.30;;;;;;5091022;28;20123;-73
2022/03/30 10:56:28;;;;;;;12.20;4.90;;;17.00;39.70;;;;;;5090569;28;20038;-73
2022/03/30 10:58:55;;;;;;;12.38;5.25;;;17.00;40.00;;;;;;5092410;28;20032;-73
2022/03/30 11:01:41;;;;;;;10.52;4.55;;;17.10;39.90;;;;;;5094956;28;20482;-74
2022/03/30 11:04:27;;;;;;;11.90;5.22;;;17.20;39.40;;;;;;5095067;28;20060;-74
2022/03/30 11:07:13;;;;;;;16.38;5.60;;;17.30;39.90;;;;;;5093486;28;20024;-74
2022/03/30 11:09:40;;;;;;;12.55;4.80;;;17.50;39.20;;;;;;5094747;28;20087;-73
2022/03/30 11:12:24;;;;;;;15.40;5.05;;;17.50;39.10;;;;;;5111015;28;20085;-74
2022/03/30 11:15:09;;;;;;;14.07;5.38;;;17.60;39.30;;;;;;5094654;28;20074;-74
2022/03/30 11:17:39;;;;;;;14.13;5.38;;;17.60;39.20;;;;;;5094602;28;20055;-74
2022/03/30 11:20:09;;;;;;;14.27;4.82;;;17.50;39.20;;;;;;5094544;28;20481;-73
2022/03/30 11:22:55;;;;;;;12.05;5.00;;;17.50;38.90;;;;;;5094515;28;20055;-74
2022/03/30 11:25:23;;;;;;;11.30;4.47;;;17.50;39.10;;;;;;5095299;28;20472;-73
2022/03/30 11:28:08;;;;;;;12.88;4.65;;;17.50;38.90;;;;;;5094364;28;20036;-73
2022/03/30 11:30:53;;;;;;;15.48;5.15;;;17.60;39.40;;;;;;5095544;28;20289;-73
2022/03/30 11:33:22;;;;;;;12.40;4.50;;;17.60;39.40;;;;;;5046646;28;20044;-74
2022/03/30 11:35:51;;;;;;;15.65;6.32;;;17.60;38.80;;;;;;5075895;28;20090;-74
2022/03/30 11:38:40;;;;;;;12.43;5.38;;;17.60;39.00;;;;;;5091113;28;20028;-74
2022/03/30 11:41:09;;;;;;;10.63;4.63;;;17.60;38.90;;;;;;5086378;28;20128;-73
2022/03/30 11:46:39;;;;;;;12.10;4.50;;;17.40;39.00;;;;;;5091296;28;20090;-74
2022/03/30 11:49:08;;;;;;;17.52;5.25;;;17.40;38.40;;;;;;5091150;28;20036;-74
2022/03/30 11:51:36;;;;;;;15.95;5.07;;;17.40;39.10;;;;;;5090869;28;20044;-73
2022/03/30 11:54:21;;;;;;;10.15;4.75;;;17.50;38.60;;;;;;5091178;28;20028;-74
2022/03/30 11:56:52;;;;;;;16.02;6.07;;;17.50;38.20;;;;;;5090703;28;20032;-74
2022/03/30 11:59:19;;;;;;;13.57;5.07;;;17.50;37.80;;;;;;5091136;28;20036;-73
2022/03/30 12:01:45;;;;;;;10.82;4.75;;;17.50;37.60;;;;;;5091079;28;20032;-73
2022/03/30 12:04:13;;;;;;;14.80;4.55;;;17.50;37.40;;;;;;5091062;28;20051;-74
2022/03/30 12:06:58;;;;;;;11.25;5.45;;;17.40;37.40;;;;;;5070139;28;20040;-74
2022/03/30 12:09:24;;;;;;;10.38;5.13;;;17.30;37.80;;;;;;5072482;28;20387;-73
2022/03/30 12:11:50;;;;;;;12.38;4.50;;;17.20;38.50;;;;;;5071059;28;20037;-73
2022/03/30 12:14:35;;;;;;;10.20;4.22;;;17.20;38.00;;;;;;5070744;28;20044;-74
2022/03/30 12:17:04;;;;;;;12.88;5.60;;;17.20;37.90;;;;;;5069998;28;20104;-74
2022/03/30 12:19:30;;;;;;;9.77;4.57;;;17.20;37.90;;;;;;5071248;28;20033;-74
2022/03/30 12:22:05;;;;;;;13.13;4.68;;;17.30;37.30;;;;;;5070230;28;20053;-74
2022/03/30 12:24:50;;;;;;;13.05;5.03;;;17.40;38.80;;;;;;5071882;28;20040;-74
2022/03/30 12:27:16;;;;;;;11.00;4.63;;;17.50;39.40;;;;;;5071409;28;20071;-73
2022/03/30 12:29:44;;;;;;;;;;;17.70;38.40;;;;;;5054395;28;20412;-74
2022/03/30 12:32:13;;;;;;;10.68;4.78;;;17.60;37.90;;;;;;5071095;28;19943;-73
2022/03/30 12:34:40;;;;;;;12.70;4.97;;;17.50;38.00;;;;;;5072634;28;20039;-73
2022/03/30 12:37:09;;;;;;;10.82;4.40;;;17.30;38.60;;;;;;5069798;28;20032;-73
2022/03/30 12:39:57;;;;;;;12.07;4.78;;;17.20;38.80;;;;;;5053686;28;20115;-74
2022/03/30 12:42:27;;;;;;;11.52;4.63;;;17.10;39.30;;;;;;5088240;28;20040;-73
2022/03/30 12:45:17;;;;;;;9.88;4.88;;;17.20;38.90;;;;;;5090299;28;20443;-73
2022/03/30 12:48:09;;;;;;;10.93;4.82;;;17.30;39.00;;;;;;5090301;28;20043;-74
2022/03/30 12:50:36;;;;;;;10.15;4.82;;;17.50;38.80;;;;;;5089639;28;20043;-74
2022/03/30 12:53:29;;;;;;;11.32;4.93;;;17.70;39.00;;;;;;5090125;28;20032;-74
2022/03/30 12:55:56;;;;;;;11.55;4.53;;;17.70;39.10;;;;;;5089905;28;20032;-73
2022/03/30 13:01:06;;;;;;;11.70;5.07;;;18.00;38.50;;;;;;5090652;28;19946;-74
2022/03/30 13:03:34;;;;;;;10.48;4.47;;;18.40;38.30;;;;;;5089944;28;20036;-74
2022/03/30 13:06:20;;;;;;;8.43;4.57;;;18.80;37.60;;;;;;5089258;28;20052;-74
2022/03/30 13:11:57;;;;;;;12.75;4.63;;;18.90;36.50;;;;;;5089566;28;20078;-75
2022/03/30 13:14:24;;;;;;;16.52;4.72;;;18.80;35.90;;;;;;5091184;28;20043;-74